Hauptseite
METAR-TAF:

METAR-TAF

Flughäfen :

Flughafen Araxos

Araxos, Griechenland

Breite: 38-09N, Länge: 021-25E, Höhe: 11 m

Beobachtung

Neuester Wetterbericht von vor 30 Minuten, um 15:20 UTC
Wind 9 kt aus Süd
Temperatur 18°C
Luftfeuchtigkeit 49%
Luftdruck 1017 hPa
Sichtweite 10 km oder mehr
keine Wolken unter 1500 m und keine Kumulonimbus oder Gewitterwolken

METAR: LGRX 251520Z 19009KT CAVOK 18/07 Q1017

Zeit: 17:50 (15:50 UTC)

Prognose

Neuester Wetterbericht von vor 1 Stunde und 50 Minuten, um 14:00 UTC
Gültige Prognose vom 25 um 15 UTC bis 25 um 24 UTC
Wind 8 kt aus Süd/Südwest
Sichtweite 10 km oder mehr
Leicht bewölkt in der Höhe von 3000 ft

TAF: LGRX 251400Z 2515/2524 20008KT 9999 FEW030

Wetterbeobachtungen und Prognosen von mehr als 4000 Flughäfen (METAR und TAF Bericht).

Die verfügbaren Stationen werden durch gelbe und rote Markierungen auf der Karte dargestellt.

Führen Sie die Maus auf sie, um den Namen der Station zu sehen.

Darauf klicken, um die Beobachtung von Wetterbeobachtungen und Prognosen zu sehen.

Um die Karte zu ändern : klicken Sie auf den grünen Tasten mit einem schwarzen Kreuz Zum Vergrößern, auf den grünen Button mit einem Gedankenstrich zu verkleinern, oder auf die grünen Pfeile für benachbarte Karten.


METAR-TAF: